Time;durP1;ratioP1;P1;durP2;ratioP2;P2;SDS_P1;SDS_P2;PMS_P1;PMS_P2;Temp;Humidity;BMP_temperature;BMP_pressure;BME280_temperature;BME280_humidity;BME280_pressure;Samples;Min_cycle;Max_cycle;Signal;HPM_P1;HPM_P2
2022/04/26 03:36:59;;;;;;;19.73;10.32;;;7.40;99.90;;;;;;5074471;28;20177;-48
2022/04/26 03:39:26;;;;;;;23.13;12.02;;;7.40;99.90;;;;;;5074783;28;20515;-46
2022/04/26 03:41:52;;;;;;;19.50;10.88;;;7.30;99.90;;;;;;5079856;28;20059;-47
2022/04/26 03:44:17;;;;;;;22.73;10.82;;;7.40;99.90;;;;;;5073801;28;20036;-50
2022/04/26 03:46:43;;;;;;;20.70;10.63;;;7.30;99.90;;;;;;5070538;28;20043;-48
2022/04/26 03:49:09;;;;;;;18.35;10.45;;;7.30;99.90;;;;;;5073104;28;20047;-48
2022/04/26 03:51:34;;;;;;;21.40;10.55;;;7.30;99.90;;;;;;5073446;28;20040;-48
2022/04/26 03:54:00;;;;;;;22.42;11.13;;;7.30;99.90;;;;;;5078060;28;20047;-48
2022/04/26 03:56:26;;;;;;;15.95;9.98;;;7.30;99.90;;;;;;5074819;28;20043;-46
2022/04/26 03:58:51;;;;;;;21.60;10.27;;;7.30;99.90;;;;;;5071905;28;20032;-48
2022/04/26 04:01:20;;;;;;;20.17;10.52;;;7.30;99.90;;;;;;5070199;28;20044;-50
2022/04/26 04:03:45;;;;;;;18.23;9.80;;;7.20;99.90;;;;;;5082138;28;20075;-47
2022/04/26 04:06:11;;;;;;;22.42;10.27;;;7.30;99.90;;;;;;5070711;28;20080;-50
2022/04/26 04:08:37;;;;;;;20.08;9.85;;;7.30;99.90;;;;;;5070375;28;20032;-49
2022/04/26 04:11:02;;;;;;;19.48;10.00;;;7.30;99.90;;;;;;5071256;28;20075;-45
2022/04/26 04:13:28;;;;;;;19.17;9.32;;;7.20;99.90;;;;;;5070547;28;20036;-46
2022/04/26 04:15:53;;;;;;;18.75;9.23;;;7.20;99.90;;;;;;5052288;28;20551;-46
2022/04/26 04:21:03;;;;;;;19.25;9.23;;;7.20;99.90;;;;;;5070214;28;20055;-46
2022/04/26 04:23:29;;;;;;;18.63;9.65;;;7.20;99.90;;;;;;5070511;28;20033;-49
2022/04/26 04:25:55;;;;;;;19.35;9.70;;;7.20;99.90;;;;;;5070510;28;20040;-50
2022/04/26 04:28:20;;;;;;;25.67;9.63;;;7.20;99.90;;;;;;5070054;28;20036;-49
2022/04/26 04:30:46;;;;;;;23.80;9.68;;;7.30;99.90;;;;;;5070314;28;20115;-48
2022/04/26 04:33:11;;;;;;;24.17;9.55;;;7.20;99.90;;;;;;5070517;28;20047;-47
2022/04/26 04:35:37;;;;;;;21.15;9.93;;;7.30;99.90;;;;;;5070309;28;20138;-48
2022/04/26 04:38:03;;;;;;;22.98;10.57;;;7.20;99.90;;;;;;5070428;28;20495;-46
2022/04/26 04:40:28;;;;;;;18.98;10.07;;;7.30;99.90;;;;;;5069916;28;20060;-46
2022/04/26 04:42:54;;;;;;;21.15;9.80;;;7.30;99.90;;;;;;5082882;28;20481;-48
2022/04/26 04:45:20;;;;;;;23.50;9.52;;;7.30;99.90;;;;;;5070946;28;20115;-47
2022/04/26 04:47:45;;;;;;;19.77;9.45;;;7.20;99.90;;;;;;5069825;28;20036;-49
2022/04/26 04:50:11;;;;;;;21.65;9.75;;;7.30;99.90;;;;;;5071230;28;20048;-49
2022/04/26 04:52:37;;;;;;;24.38;9.25;;;7.30;99.90;;;;;;5069996;28;20039;-46
2022/04/26 04:55:03;;;;;;;21.23;9.35;;;7.40;99.90;;;;;;5069953;28;20119;-49
2022/04/26 04:57:29;;;;;;;24.08;9.32;;;7.30;99.90;;;;;;5070156;28;20120;-47
2022/04/26 04:59:54;;;;;;;26.00;9.68;;;7.30;99.90;;;;;;5070145;28;20039;-48
2022/04/26 05:02:20;;;;;;;21.67;9.27;;;7.30;99.90;;;;;;5072623;28;20040;-47
2022/04/26 05:04:47;;;;;;;20.98;8.80;;;7.40;99.90;;;;;;5073469;28;20036;-47
2022/04/26 05:07:13;;;;;;;19.63;9.18;;;7.40;99.90;;;;;;5073630;28;20048;-47
2022/04/26 05:09:39;;;;;;;19.20;8.88;;;7.40;99.90;;;;;;5073098;28;20043;-47
2022/04/26 05:12:05;;;;;;;21.98;9.13;;;7.40;99.90;;;;;;5073387;28;20040;-47
2022/04/26 05:14:32;;;;;;;21.63;9.65;;;7.30;99.90;;;;;;5073706;28;20098;-46
2022/04/26 05:16:57;;;;;;;23.48;9.30;;;7.40;99.90;;;;;;5073643;28;20720;-50
2022/04/26 05:19:23;;;;;;;21.90;9.60;;;7.40;99.90;;;;;;5092271;28;20036;-46
2022/04/26 05:21:49;;;;;;;18.30;8.60;;;7.40;99.90;;;;;;5093313;28;20040;-46
2022/04/26 05:26:59;;;;;;;20.40;9.07;;;7.50;99.90;;;;;;5093527;28;20056;-49
2022/04/26 05:29:24;;;;;;;18.90;8.43;;;7.40;99.90;;;;;;5093448;28;20483;-48
2022/04/26 05:31:50;;;;;;;18.63;8.93;;;7.40;99.90;;;;;;5093366;28;20526;-47
2022/04/26 05:34:15;;;;;;;21.58;8.88;;;7.40;99.90;;;;;;5093538;28;20040;-46
2022/04/26 05:36:41;;;;;;;18.63;8.95;;;7.40;99.90;;;;;;5093129;28;20036;-49
2022/04/26 05:39:07;;;;;;;23.88;9.20;;;7.40;99.90;;;;;;5093371;28;20040;-46
2022/04/26 05:41:33;;;;;;;19.67;8.65;;;7.40;99.90;;;;;;5092739;28;20534;-48
2022/04/26 05:43:58;;;;;;;21.65;8.70;;;7.40;99.90;;;;;;5093471;28;20040;-49
2022/04/26 05:46:24;;;;;;;22.10;8.15;;;7.40;99.90;;;;;;5093233;28;20051;-50
2022/04/26 05:48:49;;;;;;;20.55;8.80;;;7.40;99.90;;;;;;5093173;28;20047;-46
2022/04/26 05:51:15;;;;;;;19.08;8.38;;;7.50;99.90;;;;;;5092937;28;20035;-46
2022/04/26 05:53:41;;;;;;;18.55;8.57;;;7.50;99.90;;;;;;5075176;28;20162;-47
2022/04/26 05:56:08;;;;;;;18.75;8.00;;;7.50;99.90;;;;;;5092836;28;20036;-48
2022/04/26 05:58:34;;;;;;;17.48;8.38;;;7.40;99.90;;;;;;5092734;28;20114;-49
2022/04/26 06:01:00;;;;;;;20.98;8.23;;;7.50;99.90;;;;;;5093147;28;20119;-47
2022/04/26 06:03:26;;;;;;;15.77;8.48;;;7.50;99.90;;;;;;5092740;28;20040;-50
2022/04/26 06:05:55;;;;;;;17.73;8.23;;;7.50;99.90;;;;;;5092764;28;20032;-47
2022/04/26 06:08:22;;;;;;;19.35;8.73;;;7.50;99.90;;;;;;5091772;28;20036;-48
2022/04/26 06:10:47;;;;;;;21.20;7.95;;;7.50;99.90;;;;;;5092531;28;20031;-48
2022/04/26 06:13:13;;;;;;;20.80;8.40;;;7.50;99.90;;;;;;5091754;28;20135;-46
2022/04/26 06:15:39;;;;;;;19.00;7.80;;;7.50;99.90;;;;;;5092581;28;20329;-48
2022/04/26 06:18:05;;;;;;;20.10;7.68;;;7.60;99.90;;;;;;5092496;28;20399;-48
2022/04/26 06:20:30;;;;;;;21.98;8.65;;;7.60;99.90;;;;;;5092726;28;20440;-48
2022/04/26 06:22:56;;;;;;;15.90;8.18;;;7.70;99.90;;;;;;5092561;28;20379;-50
2022/04/26 06:25:21;;;;;;;20.15;7.82;;;7.70;99.90;;;;;;5092267;28;20036;-49
2022/04/26 06:27:47;;;;;;;19.45;7.90;;;7.80;99.90;;;;;;5092447;28;20404;-48
2022/04/26 06:30:14;;;;;;;14.85;7.60;;;7.80;99.90;;;;;;5092426;28;20135;-47
2022/04/26 06:32:42;;;;;;;18.08;8.07;;;7.80;99.90;;;;;;5074140;28;20051;-50
2022/04/26 06:35:09;;;;;;;19.38;7.72;;;7.90;99.90;;;;;;5091973;28;20079;-50
2022/04/26 06:37:35;;;;;;;18.08;7.50;;;7.90;99.90;;;;;;5092112;28;20043;-45
2022/04/26 06:40:01;;;;;;;15.88;6.97;;;8.00;99.90;;;;;;5091559;28;20427;-46
2022/04/26 06:42:26;;;;;;;13.75;6.80;;;8.00;99.90;;;;;;5078815;28;20049;-47
2022/04/26 06:44:52;;;;;;;15.77;7.05;;;8.10;99.90;;;;;;5072283;28;20033;-48
2022/04/26 06:47:18;;;;;;;19.30;6.63;;;8.20;99.90;;;;;;5072553;28;20051;-46
2022/04/26 06:49:43;;;;;;;16.52;7.00;;;8.20;99.90;;;;;;5054019;28;20391;-45
2022/04/26 06:52:09;;;;;;;14.77;6.43;;;8.20;99.90;;;;;;5071566;28;20040;-47
2022/04/26 06:54:35;;;;;;;15.05;6.38;;;8.30;99.90;;;;;;5071958;28;20041;-48
2022/04/26 06:57:00;;;;;;;19.02;5.70;;;8.40;99.90;;;;;;5071318;28;20541;-46
2022/04/26 06:59:26;;;;;;;12.68;6.20;;;8.40;99.90;;;;;;5071556;28;20044;-48
2022/04/26 07:01:55;;;;;;;15.95;5.95;;;8.50;99.90;;;;;;5071469;28;20037;-46
2022/04/26 07:04:21;;;;;;;12.90;5.93;;;8.40;99.90;;;;;;5071393;28;20036;-46
2022/04/26 07:06:48;;;;;;;15.07;5.60;;;8.50;99.90;;;;;;5072001;28;20047;-46
2022/04/26 07:09:13;;;;;;;18.00;5.07;;;8.60;99.90;;;;;;5071362;28;20138;-51
2022/04/26 07:11:42;;;;;;;13.30;4.53;;;8.70;99.90;;;;;;5071265;28;20117;-45
2022/04/26 07:14:11;;;;;;;11.25;5.47;;;8.60;99.90;;;;;;5071331;28;20040;-46
2022/04/26 07:16:37;;;;;;;12.75;4.68;;;8.70;99.90;;;;;;5070691;28;20503;-48
2022/04/26 07:19:02;;;;;;;11.85;5.05;;;8.70;99.90;;;;;;5076017;28;20033;-50
2022/04/26 07:21:28;;;;;;;13.10;5.28;;;8.80;99.90;;;;;;5071242;28;20036;-50
2022/04/26 07:23:54;;;;;;;16.33;5.38;;;8.80;99.90;;;;;;5070930;28;20047;-46
2022/04/26 07:26:19;;;;;;;12.70;4.70;;;8.90;99.90;;;;;;5089990;28;20394;-46
2022/04/26 07:28:45;;;;;;;11.93;4.50;;;8.90;99.90;;;;;;5083060;28;20050;-46
2022/04/26 07:31:11;;;;;;;14.43;5.28;;;9.00;99.90;;;;;;5082138;28;20051;-47
2022/04/26 07:36:22;;;;;;;;;;;9.10;99.90;;;;;;5072779;28;20047;-46
2022/04/26 07:38:49;;;;;;;11.25;4.45;;;9.10;99.90;;;;;;5070859;28;20437;-47
2022/04/26 07:41:16;;;;;;;10.15;4.32;;;9.20;99.90;;;;;;5064529;28;20040;-45
2022/04/26 07:43:41;;;;;;;13.57;4.40;;;9.30;99.90;;;;;;5065788;28;20442;-48
2022/04/26 07:46:08;;;;;;;12.15;4.88;;;9.30;99.90;;;;;;5066543;28;20037;-46
2022/04/26 07:48:36;;;;;;;13.05;4.95;;;9.40;99.90;;;;;;5065652;28;20439;-46
2022/04/26 07:51:03;;;;;;;14.80;4.70;;;9.50;99.90;;;;;;5065757;28;20495;-47
2022/04/26 07:53:29;;;;;;;11.82;5.07;;;9.50;99.90;;;;;;5065678;28;20119;-48
2022/04/26 07:55:54;;;;;;;13.57;5.07;;;9.50;99.90;;;;;;5067081;28;20131;-51
2022/04/26 07:58:20;;;;;;;9.63;4.90;;;9.60;99.90;;;;;;5066194;28;20127;-50
2022/04/26 08:00:46;;;;;;;14.38;4.60;;;9.60;99.90;;;;;;5065004;28;20032;-48
2022/04/26 08:03:13;;;;;;;11.88;4.78;;;9.60;99.90;;;;;;5064721;28;20127;-46
2022/04/26 08:05:39;;;;;;;13.68;4.63;;;9.50;99.90;;;;;;5063663;28;20111;-49
2022/04/26 08:08:05;;;;;;;10.88;4.25;;;9.50;99.90;;;;;;5066342;28;20098;-47
2022/04/26 08:10:31;;;;;;;15.18;5.13;;;9.40;99.90;;;;;;5065309;28;20125;-49
2022/04/26 08:12:56;;;;;;;12.40;4.75;;;9.40;99.90;;;;;;5064481;28;20059;-47
2022/04/26 08:15:22;;;;;;;9.00;4.47;;;9.40;99.90;;;;;;5066076;28;20107;-46
2022/04/26 08:17:49;;;;;;;9.80;4.10;;;9.50;99.90;;;;;;5064640;28;20044;-47
2022/04/26 08:20:15;;;;;;;10.55;4.22;;;9.60;99.90;;;;;;5066592;28;20119;-47
2022/04/26 08:22:40;;;;;;;8.55;4.32;;;9.70;99.90;;;;;;5067099;28;20384;-46
2022/04/26 08:27:51;;;;;;;;;;;9.70;99.90;;;;;;5065813;28;21275;-47
2022/04/26 08:30:17;;;;;;;11.10;4.75;;;9.90;99.90;;;;;;5064751;28;20351;-47
2022/04/26 08:32:47;;;;;;;8.48;4.45;;;9.90;99.90;;;;;;5066584;28;20047;-47
2022/04/26 08:35:16;;;;;;;10.27;4.53;;;9.90;99.90;;;;;;5067597;28;20035;-50
2022/04/26 08:37:43;;;;;;;9.88;4.40;;;9.90;99.90;;;;;;5053033;28;20045;-48
2022/04/26 08:40:09;;;;;;;11.57;4.35;;;9.80;99.90;;;;;;5071338;28;20556;-48
2022/04/26 08:42:35;;;;;;;12.50;3.83;;;10.00;99.90;;;;;;5072757;28;20508;-46
2022/04/26 08:45:02;;;;;;;10.38;3.90;;;10.10;99.90;;;;;;5077417;28;20115;-46
2022/04/26 08:52:58;;;;;;;11.13;3.97;;;10.20;99.90;;;;;;5093731;28;19923;-45
2022/04/26 08:55:24;;;;;;;10.73;4.30;;;10.10;99.90;;;;;;5079602;28;20506;-47
2022/04/26 08:57:49;;;;;;;10.38;3.90;;;10.20;99.90;;;;;;5073981;28;20127;-47
2022/04/26 09:00:15;;;;;;;10.55;4.15;;;10.20;99.90;;;;;;5075996;28;20059;-49
2022/04/26 09:02:41;;;;;;;10.88;4.28;;;10.30;99.90;;;;;;5073494;28;20068;-46
2022/04/26 09:05:15;;;;;;;9.68;4.07;;;10.40;99.90;;;;;;5055417;28;20522;-47
2022/04/26 09:07:45;;;;;;;9.23;3.67;;;10.40;99.90;;;;;;5073280;28;20040;-48
2022/04/26 09:10:15;;;;;;;10.30;3.42;;;10.40;99.90;;;;;;5074769;28;20052;-47
2022/04/26 09:13:09;;;;;;;8.55;3.58;;;10.50;99.90;;;;;;5074124;28;20475;-48
2022/04/26 09:15:42;;;;;;;8.75;3.35;;;10.50;99.90;;;;;;5073258;28;20048;-50
2022/04/26 09:18:28;;;;;;;9.07;3.58;;;10.50;99.90;;;;;;5073006;28;20040;-47
2022/04/26 09:21:07;;;;;;;9.95;3.40;;;11.00;99.90;;;;;;5076069;28;20028;-46
2022/04/26 09:23:33;;;;;;;10.32;4.00;;;11.40;99.90;;;;;;5073104;28;20040;-49
2022/04/26 09:25:58;;;;;;;8.27;3.90;;;11.70;99.90;;;;;;5073082;28;20028;-46
2022/04/26 09:28:29;;;;;;;11.00;3.90;;;11.70;99.90;;;;;;5073324;28;20032;-48
2022/04/26 09:30:56;;;;;;;6.30;3.50;;;12.00;99.90;;;;;;5073131;28;20182;-46
2022/04/26 09:33:38;;;;;;;9.25;3.28;;;11.80;99.90;;;;;;5073153;28;20387;-49
2022/04/26 09:36:11;;;;;;;8.80;3.22;;;12.00;99.90;;;;;;5072814;28;20454;-49
2022/04/26 09:38:47;;;;;;;9.35;3.28;;;11.80;99.90;;;;;;5072649;28;20410;-47
2022/04/26 09:41:13;;;;;;;7.03;3.20;;;11.80;99.90;;;;;;5076312;28;20491;-47
2022/04/26 09:43:39;;;;;;;9.30;3.38;;;11.50;99.90;;;;;;5074272;28;20041;-48
2022/04/26 09:46:06;;;;;;;9.68;3.08;;;11.80;99.90;;;;;;5079878;28;20036;-50
2022/04/26 09:48:35;;;;;;;5.95;2.60;;;11.70;99.90;;;;;;5075625;28;20082;-50
2022/04/26 09:51:02;;;;;;;7.95;3.17;;;11.60;99.90;;;;;;5069678;28;20113;-49
2022/04/26 09:53:29;;;;;;;7.32;3.08;;;11.50;99.90;;;;;;5056376;28;20040;-47
2022/04/26 09:55:56;;;;;;;10.32;2.70;;;12.00;99.90;;;;;;5083822;28;20396;-49
2022/04/26 09:58:23;;;;;;;7.43;2.70;;;12.40;99.90;;;;;;5077310;28;20032;-46
2022/04/26 10:00:51;;;;;;;11.43;3.33;;;12.20;99.90;;;;;;5078879;28;20054;-51
2022/04/26 10:03:23;;;;;;;8.27;2.88;;;12.20;99.90;;;;;;5083715;28;20029;-46
2022/04/26 10:05:50;;;;;;;9.35;2.78;;;11.90;99.90;;;;;;5073912;28;20024;-47
2022/04/26 10:08:18;;;;;;;5.68;2.70;;;12.30;99.90;;;;;;5073267;28;20044;-49
2022/04/26 10:10:44;;;;;;;6.03;2.22;;;12.60;99.90;;;;;;5072819;28;20066;-47
2022/04/26 10:13:32;;;;;;;8.27;2.50;;;12.70;99.90;;;;;;5072903;28;20047;-46
2022/04/26 10:16:00;;;;;;;7.90;2.60;;;12.90;99.90;;;;;;5072857;28;20039;-47
2022/04/26 10:18:47;;;;;;;5.97;2.28;;;13.10;99.90;;;;;;5073010;28;20388;-49
2022/04/26 10:21:38;;;;;;;8.63;2.30;;;13.20;99.90;;;;;;5073175;28;20143;-46
2022/04/26 10:24:25;;;;;;;7.55;2.40;;;13.00;99.90;;;;;;5072490;28;20048;-47
2022/04/26 10:26:52;;;;;;;7.97;2.63;;;12.60;99.90;;;;;;5072875;28;20040;-50
2022/04/26 10:29:25;;;;;;;7.82;2.40;;;12.40;99.90;;;;;;5072446;28;20044;-48
2022/04/26 10:31:59;;;;;;;5.18;2.30;;;12.80;99.90;;;;;;5054512;28;20075;-48
2022/04/26 10:34:31;;;;;;;8.20;2.47;;;13.40;99.90;;;;;;5072924;28;20383;-45
2022/04/26 10:36:59;;;;;;;6.65;2.30;;;13.50;99.90;;;;;;5054582;28;20068;-49
2022/04/26 10:39:42;;;;;;;6.07;2.40;;;13.30;99.90;;;;;;5072545;28;20437;-48
2022/04/26 10:42:11;;;;;;;5.50;2.00;;;13.20;99.90;;;;;;5072389;28;20041;-47
2022/04/26 10:44:48;;;;;;;6.78;2.40;;;13.40;99.90;;;;;;5072364;28;20055;-47
2022/04/26 10:47:18;;;;;;;6.47;2.15;;;13.40;99.90;;;;;;5072195;28;20457;-49
2022/04/26 10:49:45;;;;;;;6.60;2.47;;;13.80;99.90;;;;;;5072159;28;20044;-51
2022/04/26 10:52:22;;;;;;;7.95;2.78;;;13.90;99.90;;;;;;5072244;28;20043;-50
2022/04/26 10:55:03;;;;;;;6.03;2.55;;;13.60;99.90;;;;;;5090964;28;20040;-49
2022/04/26 10:57:31;;;;;;;7.10;2.45;;;13.20;99.90;;;;;;5072029;28;20526;-47
2022/04/26 11:00:06;;;;;;;7.50;2.75;;;13.10;99.90;;;;;;5065125;28;20049;-50
2022/04/26 11:02:40;;;;;;;4.57;2.00;;;13.60;99.90;;;;;;5068063;28;20071;-48
2022/04/26 11:05:13;;;;;;;5.50;2.03;;;13.90;98.90;;;;;;5067183;28;20048;-48
2022/04/26 11:07:41;;;;;;;7.07;2.60;;;14.50;99.20;;;;;;5068004;28;20447;-48
2022/04/26 11:10:09;;;;;;;5.53;2.10;;;14.80;99.80;;;;;;5065741;28;20483;-48
2022/04/26 11:12:37;;;;;;;5.93;2.42;;;14.50;98.70;;;;;;5068599;28;20028;-47
2022/04/26 11:15:15;;;;;;;6.75;2.20;;;13.90;98.60;;;;;;5064395;28;20048;-50
2022/04/26 11:17:42;;;;;;;6.25;2.67;;;13.80;98.60;;;;;;5066310;28;20040;-47
2022/04/26 11:20:16;;;;;;;6.10;2.28;;;14.00;98.30;;;;;;5066130;28;20040;-47
2022/04/26 11:22:46;;;;;;;5.80;2.40;;;13.90;97.10;;;;;;5064627;28;20036;-49
2022/04/26 11:28:17;;;;;;;5.43;2.00;;;14.60;97.20;;;;;;5006958;28;20393;-49
2022/04/26 11:30:48;;;;;;;5.68;2.25;;;14.80;97.50;;;;;;5052528;28;20048;-49
2022/04/26 11:33:19;;;;;;;5.65;2.20;;;15.10;98.10;;;;;;5064048;28;20589;-47
2022/04/26 11:35:51;;;;;;;7.45;2.35;;;14.80;97.60;;;;;;5046499;28;20048;-49
2022/04/26 11:38:17;;;;;;;5.78;2.28;;;14.10;96.50;;;;;;5051076;28;20099;-45
2022/04/26 11:41:01;;;;;;;7.18;2.30;;;13.90;97.20;;;;;;5066116;28;20072;-46
2022/04/26 11:43:33;;;;;;;5.30;2.00;;;14.40;97.20;;;;;;5062662;28;20045;-49
2022/04/26 11:46:00;;;;;;;6.15;2.33;;;14.40;96.00;;;;;;5064964;28;20452;-46
2022/04/26 11:48:29;;;;;;;7.07;2.30;;;14.30;96.60;;;;;;5067485;28;20499;-48
2022/04/26 11:50:56;;;;;;;6.55;2.38;;;14.10;96.60;;;;;;5063525;28;20033;-45
2022/04/26 11:53:32;;;;;;;5.78;1.80;;;14.30;97.70;;;;;;5061301;28;20048;-48
2022/04/26 11:56:02;;;;;;;5.32;2.15;;;14.70;95.00;;;;;;5063765;28;20034;-49
2022/04/26 11:58:28;;;;;;;5.68;2.13;;;15.00;95.30;;;;;;5062584;28;20063;-46
2022/04/26 12:01:02;;;;;;;6.28;2.38;;;15.00;93.80;;;;;;5063423;28;20071;-45
2022/04/26 12:03:49;;;;;;;7.13;2.10;;;14.90;94.90;;;;;;5063803;28;20035;-47
2022/04/26 12:06:20;;;;;;;7.00;2.35;;;15.30;94.50;;;;;;5064532;28;20133;-46
2022/04/26 12:08:50;;;;;;;5.28;2.40;;;15.20;93.10;;;;;;5045620;28;20032;-51
2022/04/26 12:11:24;;;;;;;5.88;2.05;;;14.90;94.60;;;;;;5062490;28;20036;-48
2022/04/26 12:14:03;;;;;;;5.78;2.00;;;14.40;93.70;;;;;;5063893;28;20452;-48
2022/04/26 12:16:30;;;;;;;3.78;1.70;;;14.60;94.00;;;;;;5063661;28;20048;-48
2022/04/26 12:19:00;;;;;;;5.60;1.77;;;15.00;94.30;;;;;;5064584;28;20094;-49
2022/04/26 12:21:27;;;;;;;7.55;2.28;;;14.90;93.20;;;;;;5063862;28;20440;-48
2022/04/26 12:24:11;;;;;;;6.72;2.30;;;15.00;93.70;;;;;;5064096;28;20032;-46
2022/04/26 12:27:04;;;;;;;7.30;2.15;;;15.30;95.00;;;;;;5064221;28;20041;-47
2022/04/26 12:29:36;;;;;;;5.38;1.90;;;15.00;94.10;;;;;;5064166;28;20598;-47
2022/04/26 12:32:11;;;;;;;6.38;2.25;;;14.90;94.80;;;;;;5064020;28;20045;-47
2022/04/26 12:34:45;;;;;;;11.00;2.33;;;14.40;94.50;;;;;;5064408;28;20036;-45
2022/04/26 12:37:21;;;;;;;6.30;2.22;;;14.70;94.80;;;;;;5064655;28;20057;-46
2022/04/26 12:40:07;;;;;;;5.63;2.30;;;15.00;93.90;;;;;;5063731;28;20081;-45
2022/04/26 12:42:35;;;;;;;6.28;2.20;;;15.30;93.20;;;;;;5051452;28;20036;-48
2022/04/26 12:45:02;;;;;;;5.50;2.13;;;15.70;93.00;;;;;;5065393;28;20041;-46
2022/04/26 12:50:31;;;;;;;4.97;1.98;;;16.10;91.90;;;;;;5065478;28;20116;-47
2022/04/26 12:53:04;;;;;;;5.10;2.33;;;15.60;91.80;;;;;;5063811;28;20387;-49
2022/04/26 12:55:41;;;;;;;8.05;2.42;;;15.10;91.90;;;;;;5064774;28;20036;-45
2022/04/26 12:58:11;;;;;;;5.45;2.05;;;15.30;91.80;;;;;;5064505;28;20069;-50
2022/04/26 13:00:42;;;;;;;6.35;1.90;;;15.00;90.40;;;;;;5064740;28;20032;-49
2022/04/26 13:03:09;;;;;;;6.82;2.08;;;15.60;91.60;;;;;;5064093;28;20523;-46
2022/04/26 13:06:15;;;;;;;5.00;1.95;;;16.40;91.30;;;;;;5063933;28;20037;-45
2022/04/26 13:08:44;;;;;;;3.90;1.90;;;16.30;89.20;;;;;;5065686;28;20036;-48
2022/04/26 13:11:10;;;;;;;6.05;2.15;;;15.90;90.20;;;;;;5064979;28;20102;-49
2022/04/26 13:13:39;;;;;;;8.13;2.13;;;16.50;91.00;;;;;;5064101;28;20041;-50
2022/04/26 13:16:05;;;;;;;6.07;1.95;;;16.60;88.70;;;;;;5063691;28;20357;-47
2022/04/26 13:18:31;;;;;;;4.32;1.80;;;16.50;88.00;;;;;;5063964;28;20044;-46
2022/04/26 13:20:58;;;;;;;5.00;2.10;;;16.50;87.30;;;;;;5063377;28;20041;-48
2022/04/26 13:23:24;;;;;;;5.70;2.50;;;16.20;88.10;;;;;;5065899;28;20160;-46
2022/04/26 13:25:51;;;;;;;5.57;2.15;;;16.00;89.30;;;;;;5066657;28;20033;-47
2022/04/26 13:28:16;;;;;;;5.45;2.20;;;15.80;88.80;;;;;;5066722;28;20041;-46
2022/04/26 13:30:43;;;;;;;5.70;2.35;;;15.50;88.00;;;;;;5067584;28;20040;-47
2022/04/26 13:33:08;;;;;;;6.68;2.00;;;15.80;88.90;;;;;;5067756;28;20518;-48
2022/04/26 13:35:37;;;;;;;4.15;1.85;;;16.10;86.90;;;;;;5070435;28;20044;-48
2022/04/26 13:38:09;;;;;;;5.43;2.15;;;16.30;85.60;;;;;;5067182;28;20044;-48
2022/04/26 13:40:37;;;;;;;6.18;2.10;;;16.90;85.20;;;;;;5052320;28;20052;-49
2022/04/26 13:43:03;;;;;;;4.00;1.63;;;17.00;85.20;;;;;;5066696;28;20047;-50
2022/04/26 13:45:29;;;;;;;5.78;1.95;;;17.10;84.70;;;;;;5068387;28;20036;-47
2022/04/26 13:47:55;;;;;;;4.93;1.90;;;16.90;83.60;;;;;;5068715;28;20051;-48
2022/04/26 13:50:20;;;;;;;5.07;2.10;;;17.20;81.50;;;;;;5068866;28;20125;-51
2022/04/26 13:52:46;;;;;;;4.07;1.77;;;17.60;81.40;;;;;;5068932;28;20503;-47
2022/04/26 13:55:17;;;;;;;6.13;1.98;;;18.10;80.30;;;;;;5067726;28;20121;-49
2022/04/26 13:57:44;;;;;;;3.58;1.75;;;17.50;79.70;;;;;;5067639;28;20045;-48
2022/04/26 14:00:11;;;;;;;4.63;1.60;;;17.30;79.10;;;;;;5068232;28;20360;-45
2022/04/26 14:02:38;;;;;;;5.60;1.80;;;17.20;77.60;;;;;;5067623;28;20036;-49
2022/04/26 14:05:04;;;;;;;6.30;2.00;;;16.70;77.60;;;;;;5067155;28;20130;-50
2022/04/26 14:07:30;;;;;;;4.28;1.85;;;16.60;79.70;;;;;;5031201;28;20116;-47
2022/04/26 14:09:56;;;;;;;3.38;1.60;;;16.50;76.40;;;;;;5066248;28;20048;-48
2022/04/26 14:12:21;;;;;;;4.88;1.88;;;17.20;77.80;;;;;;5067824;28;20162;-47
2022/04/26 14:22:59;;;;;;;3.95;1.60;;;18.00;78.20;;;;;;5065394;28;19912;-46
2022/04/26 14:25:25;;;;;;;6.63;2.35;;;18.30;79.10;;;;;;5065734;28;20360;-48
2022/04/26 14:27:51;;;;;;;4.75;2.22;;;17.90;75.60;;;;;;5068544;28;20451;-48
2022/04/26 14:30:17;;;;;;;4.65;1.75;;;17.70;76.60;;;;;;5069022;28;20052;-47
2022/04/26 14:32:46;;;;;;;5.72;1.88;;;17.80;78.20;;;;;;5049034;28;20064;-46
2022/04/26 14:35:13;;;;;;;3.70;1.80;;;18.70;82.20;;;;;;5067269;28;20093;-45
2022/04/26 14:37:38;;;;;;;4.40;1.92;;;19.10;75.70;;;;;;5068708;28;20463;-47
2022/04/26 14:40:06;;;;;;;5.20;2.15;;;18.90;74.10;;;;;;5068816;28;20067;-47
2022/04/26 14:42:31;;;;;;;4.47;2.15;;;18.30;76.80;;;;;;5068707;28;20131;-49
2022/04/26 14:44:57;;;;;;;6.07;2.10;;;17.30;76.70;;;;;;5068035;28;20601;-47
2022/04/26 14:47:26;;;;;;;4.50;2.03;;;16.30;76.60;;;;;;5066252;28;20041;-47
2022/04/26 14:49:59;;;;;;;6.03;2.20;;;16.40;78.30;;;;;;5067721;28;20394;-50
2022/04/26 14:52:24;;;;;;;5.78;2.10;;;17.00;79.60;;;;;;5067943;28;20062;-49
2022/04/26 14:54:51;;;;;;;5.80;2.08;;;17.30;76.30;;;;;;5065591;28;20036;-49
2022/04/26 14:57:21;;;;;;;4.47;1.80;;;17.90;77.40;;;;;;5066923;28;20412;-47
2022/04/26 14:59:47;;;;;;;6.45;2.20;;;18.10;74.50;;;;;;5067654;28;20052;-46
2022/04/26 15:02:17;;;;;;;6.50;2.05;;;18.40;76.90;;;;;;5067496;28;20494;-51
2022/04/26 15:04:44;;;;;;;4.93;1.90;;;18.70;74.90;;;;;;5046262;28;20040;-48
2022/04/26 15:07:11;;;;;;;4.88;2.22;;;19.40;73.30;;;;;;5065258;28;20063;-49
2022/04/26 15:09:42;;;;;;;4.80;2.17;;;18.50;73.20;;;;;;5067125;28;20038;-48
2022/04/26 15:17:48;;;;;;;7.82;2.33;;;18.30;78.20;;;;;;5065625;28;20067;-49
2022/04/26 15:20:15;;;;;;;6.28;2.30;;;18.70;76.10;;;;;;5066424;28;20067;-50
2022/04/26 15:22:41;;;;;;;6.20;2.13;;;17.90;75.60;;;;;;5062747;28;20048;-50
2022/04/26 15:25:09;;;;;;;5.78;2.10;;;17.30;79.10;;;;;;5030914;28;20040;-48
2022/04/26 15:27:38;;;;;;;8.63;2.28;;;17.10;78.90;;;;;;5065752;28;20044;-45
2022/04/26 15:30:07;;;;;;;6.78;2.10;;;17.10;79.90;;;;;;5069533;28;20040;-48
2022/04/26 15:32:33;;;;;;;7.82;2.38;;;17.30;78.50;;;;;;5065354;28;20040;-50
2022/04/26 15:34:59;;;;;;;6.25;2.25;;;17.40;79.10;;;;;;5066776;28;20122;-46
2022/04/26 15:37:25;;;;;;;6.82;2.50;;;18.00;78.50;;;;;;5064529;28;20238;-48
2022/04/26 15:39:53;;;;;;;5.35;2.25;;;18.10;78.00;;;;;;5061130;28;20040;-50
2022/04/26 15:42:19;;;;;;;4.63;1.90;;;18.50;77.00;;;;;;5062946;28;20044;-46
2022/04/26 15:44:45;;;;;;;6.13;1.90;;;18.30;76.30;;;;;;5062388;28;20352;-52
2022/04/26 15:47:11;;;;;;;5.40;2.42;;;18.10;73.80;;;;;;5063151;28;20071;-48
2022/04/26 15:49:37;;;;;;;8.68;2.50;;;17.60;76.00;;;;;;5046115;28;20045;-46
2022/04/26 15:52:03;;;;;;;5.15;2.00;;;17.80;76.70;;;;;;5064782;28;20029;-45
2022/04/26 15:54:29;;;;;;;4.28;2.10;;;17.80;75.90;;;;;;5063066;28;20040;-50
2022/04/26 15:56:54;;;;;;;7.63;2.33;;;18.30;76.10;;;;;;5063817;28;20083;-48
2022/04/26 15:59:20;;;;;;;5.60;2.22;;;17.90;75.80;;;;;;5044866;28;20040;-47
2022/04/26 16:01:46;;;;;;;7.65;2.10;;;18.40;77.40;;;;;;5031516;28;20040;-50
2022/04/26 16:04:12;;;;;;;6.10;1.77;;;18.80;76.30;;;;;;5046514;28;20063;-48
2022/04/26 16:06:39;;;;;;;6.28;2.15;;;18.70;74.50;;;;;;5066178;28;20119;-46
2022/04/26 16:22:48;;;;;;;4.80;2.30;;;18.80;73.10;;;;;;5073433;28;20047;-49
2022/04/26 16:25:15;;;;;;;5.72;2.10;;;18.90;72.80;;;;;;5069466;28;20032;-48
2022/04/26 16:27:41;;;;;;;3.97;1.95;;;19.00;72.00;;;;;;5065246;28;20067;-48
2022/04/26 16:30:09;;;;;;;5.13;2.28;;;18.50;70.60;;;;;;5063452;28;20542;-48
2022/04/26 16:32:34;;;;;;;5.55;1.80;;;18.40;71.30;;;;;;5067336;28;20043;-48
2022/04/26 16:35:00;;;;;;;5.70;2.03;;;18.00;70.10;;;;;;5067849;28;20043;-49
2022/04/26 16:37:26;;;;;;;5.25;1.75;;;18.40;70.60;;;;;;5070236;28;20047;-48
2022/04/26 16:39:52;;;;;;;5.50;2.22;;;17.70;69.50;;;;;;5067892;28;20119;-48
2022/04/26 16:42:18;;;;;;;6.25;2.03;;;17.70;69.80;;;;;;5064560;28;20045;-49
2022/04/26 16:44:44;;;;;;;6.20;1.83;;;18.10;70.40;;;;;;5063484;28;20041;-52
2022/04/26 16:47:10;;;;;;;5.63;2.40;;;18.90;71.00;;;;;;5066590;28;20037;-49
2022/04/26 16:49:36;;;;;;;5.93;2.67;;;18.50;68.40;;;;;;5047512;28;20032;-48
2022/04/26 16:52:04;;;;;;;6.10;2.10;;;18.40;68.70;;;;;;5046252;28;20082;-48
2022/04/26 16:54:30;;;;;;;4.50;1.80;;;18.40;70.60;;;;;;5047081;28;20399;-46
2022/04/26 16:56:55;;;;;;;5.13;2.00;;;18.20;70.10;;;;;;5062958;28;20047;-48
2022/04/26 16:59:23;;;;;;;6.57;2.45;;;18.20;71.00;;;;;;5066476;28;20046;-47
2022/04/26 17:01:49;;;;;;;5.75;2.25;;;17.50;72.20;;;;;;5051221;28;20173;-50
2022/04/26 17:04:15;;;;;;;6.35;2.25;;;17.00;72.20;;;;;;5069122;28;20124;-48
2022/04/26 17:06:41;;;;;;;5.15;1.98;;;16.60;73.50;;;;;;5067461;28;20048;-47
2022/04/26 17:09:07;;;;;;;5.68;1.90;;;16.50;76.40;;;;;;5067413;28;20085;-48
2022/04/26 17:11:42;;;;;;;5.57;2.25;;;16.10;77.00;;;;;;5072598;28;20044;-46
2022/04/26 17:14:19;;;;;;;6.93;2.35;;;15.80;77.10;;;;;;5068857;28;20540;-46
2022/04/26 17:16:47;;;;;;;4.90;1.95;;;15.70;78.10;;;;;;5069596;28;20036;-46